Aviation Digital Data Service (ADDS)

Output produced by TAFs form (0850 UTC 27 July 2017)
found at http://www.aviationweather.gov/adds/tafs/
 
KPOU 270534Z 2706/2806 VRB03KT P6SM BKN050 BKN100 
     FM271200 23006KT P6SM VCSH SCT020 OVC040 
     TEMPO 2715/2719 3SM -SHRA BR SCT010 OVC020 
     FM271900 25006KT P6SM VCSH SCT020 BKN040 BKN080 
     FM280000 VRB03KT 4SM BR VCSH BKN020 BKN050